createdAt,value
2023-01-10T00:01:44.245Z,2.97
2023-01-10T00:04:12.431Z,2.85
2023-01-10T00:06:40.407Z,2.50
2023-01-10T00:09:08.848Z,3.03
2023-01-10T00:11:53.468Z,2.63
2023-01-10T00:14:21.785Z,2.97
2023-01-10T00:16:51.188Z,2.72
2023-01-10T00:19:19.108Z,2.13
2023-01-10T00:21:47.137Z,2.45
2023-01-10T00:24:20.415Z,2.95
2023-01-10T00:26:52.107Z,2.80
2023-01-10T00:29:21.158Z,3.28
2023-01-10T00:31:50.808Z,2.60
2023-01-10T00:34:18.737Z,2.88
2023-01-10T00:36:48.025Z,2.08
2023-01-10T00:39:19.193Z,3.25
2023-01-10T00:42:04.954Z,3.20
2023-01-10T00:44:32.929Z,3.08
2023-01-10T00:47:02.235Z,3.28
2023-01-10T00:49:30.361Z,2.25
2023-01-10T00:51:59.655Z,3.08
2023-01-10T00:54:27.743Z,2.92
2023-01-10T00:56:55.910Z,3.00
2023-01-10T00:59:24.491Z,2.95
2023-01-10T01:01:53.255Z,4.47
2023-01-10T01:04:22.945Z,3.50
2023-01-10T01:06:50.993Z,3.28
2023-01-10T01:09:19.168Z,3.42
2023-01-10T01:11:47.138Z,3.05
2023-01-10T01:14:15.111Z,3.30
2023-01-10T01:16:42.993Z,3.20
2023-01-10T01:19:11.219Z,2.95
2023-01-10T01:21:40.488Z,3.83
2023-01-10T01:24:09.798Z,3.20
2023-01-10T01:26:37.799Z,3.50
2023-01-10T01:29:07.018Z,3.88
2023-01-10T01:31:34.946Z,3.08
2023-01-10T01:34:03.198Z,3.00
2023-01-10T01:36:31.333Z,3.10
2023-01-10T01:39:00.607Z,3.20
2023-01-10T01:41:45.898Z,3.40
2023-01-10T01:44:17.491Z,2.42
2023-01-10T01:46:48.741Z,3.28
2023-01-10T01:49:21.536Z,4.40
2023-01-10T01:51:52.140Z,3.25
2023-01-10T01:54:22.004Z,3.05
2023-01-10T01:56:56.089Z,3.78
2023-01-10T01:59:27.742Z,3.78
2023-01-10T02:01:58.853Z,3.90
2023-01-10T02:04:32.782Z,3.28
2023-01-10T02:07:00.858Z,3.53
2023-01-10T02:09:35.706Z,3.63
2023-01-10T02:12:04.143Z,2.67
2023-01-10T02:14:34.476Z,3.75
2023-01-10T02:17:02.377Z,3.70
2023-01-10T02:19:43.484Z,2.78
2023-01-10T02:22:51.651Z,5.13
2023-01-10T02:25:46.980Z,4.00
2023-01-10T02:28:43.358Z,3.38
2023-01-10T02:31:44.457Z,3.10
2023-01-10T02:34:21.182Z,2.55
2023-01-10T02:37:00.306Z,3.85
2023-01-10T02:39:35.800Z,2.67
2023-01-10T02:42:09.482Z,3.05
2023-01-10T02:44:44.266Z,2.97
2023-01-10T02:47:14.971Z,2.17
2023-01-10T02:49:45.711Z,2.75
2023-01-10T02:52:16.529Z,2.90
2023-01-10T02:54:45.030Z,3.17
2023-01-10T02:57:39.009Z,2.25
2023-01-10T03:00:35.219Z,3.53
2023-01-10T03:03:17.790Z,3.00
2023-01-10T03:05:56.937Z,2.25
2023-01-10T03:08:34.933Z,3.00
2023-01-10T03:11:04.673Z,3.03
2023-01-10T03:13:39.054Z,3.15
2023-01-10T03:16:11.396Z,3.55
2023-01-10T03:18:45.973Z,3.00
2023-01-10T03:21:16.874Z,3.92
2023-01-10T03:23:46.897Z,4.30
2023-01-10T03:26:16.207Z,3.70
2023-01-10T03:28:49.858Z,2.75
2023-01-10T03:31:23.395Z,2.28
2023-01-10T03:33:51.502Z,2.92
2023-01-10T03:36:30.981Z,4.25
2023-01-10T03:39:06.288Z,2.97
2023-01-10T03:41:39.165Z,2.85
2023-01-10T03:44:33.935Z,3.60
2023-01-10T03:47:08.267Z,2.97
2023-01-10T03:49:39.435Z,2.45
2023-01-10T03:52:12.549Z,2.75
2023-01-10T03:54:43.012Z,2.70
2023-01-10T03:57:17.621Z,2.78
2023-01-10T03:59:45.631Z,3.33
2023-01-10T04:02:13.682Z,2.63
2023-01-10T04:04:41.673Z,2.72
2023-01-10T04:07:11.175Z,3.10
2023-01-10T04:09:39.558Z,4.22
2023-01-10T04:12:07.745Z,3.35
2023-01-10T04:14:35.715Z,3.13
2023-01-10T04:17:04.611Z,2.97
2023-01-10T04:19:32.649Z,3.72
2023-01-10T04:22:00.736Z,4.03
2023-01-10T04:24:30.053Z,3.88
2023-01-10T04:26:57.952Z,3.30
2023-01-10T04:29:25.925Z,3.60
2023-01-10T04:31:54.459Z,3.03
2023-01-10T04:34:22.661Z,3.42
2023-01-10T04:36:51.024Z,2.75
2023-01-10T04:39:18.991Z,3.63
2023-01-10T04:41:48.207Z,3.50
2023-01-10T04:44:16.067Z,3.58
2023-01-10T04:46:44.156Z,3.28
2023-01-10T04:49:12.447Z,2.60
2023-01-10T04:51:40.760Z,3.05
2023-01-10T04:54:08.807Z,3.70
2023-01-10T04:56:36.930Z,2.50
2023-01-10T04:59:06.589Z,3.38
2023-01-10T05:01:35.470Z,3.63
2023-01-10T05:04:04.024Z,3.20
2023-01-10T05:06:32.014Z,3.40
2023-01-10T05:08:59.966Z,3.53
2023-01-10T05:11:27.988Z,3.13
2023-01-10T05:13:55.971Z,2.65
2023-01-10T05:16:25.548Z,3.03
2023-01-10T05:18:53.480Z,2.53
2023-01-10T05:21:21.436Z,3.88
2023-01-10T05:23:49.391Z,3.35
2023-01-10T05:26:20.396Z,2.83
2023-01-10T05:28:49.784Z,3.22
2023-01-10T05:31:19.685Z,2.78
2023-01-10T05:33:50.742Z,2.97
2023-01-10T05:36:19.877Z,3.13
2023-01-10T05:38:48.570Z,3.00
2023-01-10T05:41:16.612Z,3.17
2023-01-10T05:43:44.642Z,2.63
2023-01-10T05:46:12.941Z,3.05
2023-01-10T05:48:41.041Z,4.07
2023-01-10T05:51:10.358Z,2.90
2023-01-10T05:53:38.521Z,2.88
2023-01-10T05:56:07.762Z,2.95
2023-01-10T05:58:36.112Z,2.83
2023-01-10T06:01:04.495Z,3.13
2023-01-10T06:03:32.629Z,2.58
2023-01-10T06:06:00.507Z,3.10
2023-01-10T06:08:30.041Z,2.30
2023-01-10T06:10:58.103Z,2.88
2023-01-10T06:13:26.128Z,3.03
2023-01-10T06:15:54.266Z,2.83
2023-01-10T06:18:22.695Z,2.08
2023-01-10T06:20:50.785Z,2.90
2023-01-10T06:23:18.681Z,2.17
2023-01-10T06:25:48.157Z,3.25
2023-01-10T06:28:16.455Z,3.03
2023-01-10T06:30:45.010Z,2.50
2023-01-10T06:33:13.642Z,2.42
2023-01-10T06:35:42.316Z,2.38
2023-01-10T06:38:10.383Z,2.75
2023-01-10T06:40:38.811Z,2.45
2023-01-10T06:43:08.062Z,2.13
2023-01-10T06:45:36.218Z,2.25
2023-01-10T06:48:04.620Z,2.03
2023-01-10T06:50:32.901Z,2.28
2023-01-10T06:53:03.686Z,2.08
2023-01-10T06:55:33.256Z,2.63
2023-01-10T06:58:02.886Z,1.80
2023-01-10T07:00:33.245Z,2.33
2023-01-10T07:03:03.463Z,2.15
2023-01-10T07:05:31.503Z,1.98
2023-01-10T07:08:01.447Z,1.92
2023-01-10T07:10:29.847Z,2.42
2023-01-10T07:12:58.518Z,2.10
2023-01-10T07:15:27.255Z,2.25
2023-01-10T07:17:57.908Z,1.83
2023-01-10T07:20:26.840Z,2.40
2023-01-10T07:22:56.066Z,2.35
2023-01-10T07:25:24.744Z,2.70
2023-01-10T07:27:55.406Z,2.65
2023-01-10T07:30:25.452Z,3.00
2023-01-10T07:32:58.720Z,3.00
2023-01-10T07:35:27.663Z,2.72
2023-01-10T07:37:58.702Z,3.25
2023-01-10T07:40:27.830Z,3.00
2023-01-10T07:42:58.312Z,3.58
2023-01-10T07:45:28.428Z,3.80
2023-01-10T07:47:58.895Z,4.18
2023-01-10T07:50:28.899Z,3.50
2023-01-10T07:52:57.228Z,3.70
2023-01-10T07:55:25.826Z,3.45
2023-01-10T07:57:53.897Z,3.85
2023-01-10T08:00:22.771Z,4.30
2023-01-10T08:02:54.981Z,4.03
2023-01-10T08:05:25.338Z,4.95
2023-01-10T08:07:55.338Z,3.90
2023-01-10T08:10:23.403Z,3.78
2023-01-10T08:12:51.538Z,4.22
2023-01-10T08:15:20.016Z,4.32
2023-01-10T08:17:48.292Z,4.40
2023-01-10T08:20:17.121Z,4.95
2023-01-10T08:22:46.729Z,4.82
2023-01-10T08:25:14.768Z,4.78
2023-01-10T08:27:42.905Z,5.30
2023-01-10T08:30:12.671Z,4.00
2023-01-10T08:32:40.996Z,5.38
2023-01-10T08:35:10.277Z,4.60
2023-01-10T08:37:39.474Z,4.43
2023-01-10T08:40:10.663Z,4.93
2023-01-10T08:42:39.003Z,4.57
2023-01-10T08:45:08.251Z,4.60
2023-01-10T08:47:36.491Z,4.93
2023-01-10T08:50:07.924Z,5.40
2023-01-10T08:52:36.399Z,4.57
2023-01-10T08:55:05.178Z,5.22
2023-01-10T08:57:34.951Z,5.85
2023-01-10T09:00:04.210Z,4.30
2023-01-10T09:02:32.357Z,5.82
2023-01-10T09:05:00.434Z,5.07
2023-01-10T09:07:28.947Z,4.88
2023-01-10T09:09:57.159Z,4.30
2023-01-10T09:12:42.761Z,4.65
2023-01-10T09:15:13.973Z,4.68
2023-01-10T09:17:42.172Z,4.25
2023-01-10T09:20:11.797Z,4.45
2023-01-10T09:22:40.841Z,5.35
2023-01-10T09:25:09.604Z,4.40
2023-01-10T09:27:37.932Z,5.88
2023-01-10T09:30:07.280Z,4.47
2023-01-10T09:32:38.272Z,4.05
2023-01-10T09:35:07.613Z,4.32
2023-01-10T09:37:38.004Z,4.15
2023-01-10T09:40:08.497Z,4.30
2023-01-10T09:42:50.359Z,4.38
2023-01-10T09:45:22.935Z,4.38
2023-01-10T09:47:59.532Z,4.22
2023-01-10T09:50:38.581Z,3.83
2023-01-10T09:53:12.288Z,3.42
2023-01-10T09:55:42.115Z,4.90
2023-01-10T09:58:14.348Z,4.95
2023-01-10T10:00:46.311Z,5.43
2023-01-10T10:03:26.773Z,4.07
2023-01-10T10:06:03.823Z,3.88
2023-01-10T10:08:39.119Z,4.88
2023-01-10T10:11:25.022Z,4.05
2023-01-10T10:14:01.105Z,4.15
2023-01-10T10:16:38.864Z,4.75
2023-01-10T10:19:20.298Z,4.85
2023-01-10T10:21:59.941Z,4.95
2023-01-10T10:24:44.491Z,5.25
2023-01-10T10:27:22.650Z,4.28
2023-01-10T10:30:11.729Z,4.93
2023-01-10T10:33:15.680Z,5.50
2023-01-10T10:35:54.316Z,4.57
2023-01-10T10:38:29.793Z,4.40
2023-01-10T10:41:01.051Z,4.63
2023-01-10T10:43:35.197Z,4.80
2023-01-10T10:46:06.792Z,5.30
2023-01-10T10:48:40.974Z,4.97
2023-01-10T10:51:18.769Z,4.10
2023-01-10T10:53:48.515Z,4.40
2023-01-10T10:56:21.071Z,5.70
2023-01-10T10:58:53.786Z,4.07
2023-01-10T11:01:24.058Z,4.20
2023-01-10T11:03:57.556Z,4.88
2023-01-10T11:06:29.575Z,4.30
2023-01-10T11:09:01.306Z,4.70
2023-01-10T11:11:34.352Z,4.35
2023-01-10T11:17:26.351Z,4.47
2023-01-10T11:19:59.877Z,4.45
2023-01-10T11:25:03.857Z,5.47
2023-01-10T11:27:34.514Z,5.30
2023-01-10T11:30:05.109Z,5.78
2023-01-10T11:32:36.627Z,6.28
2023-01-10T11:35:09.253Z,5.88
2023-01-10T11:37:38.715Z,6.93
2023-01-10T11:40:24.203Z,7.07
2023-01-10T11:42:57.615Z,6.82
2023-01-10T11:45:32.973Z,6.85
2023-01-10T11:48:08.781Z,7.38
2023-01-10T11:50:39.378Z,7.03
2023-01-10T11:53:32.146Z,7.20
2023-01-10T11:56:00.300Z,8.07
2023-01-10T11:58:33.124Z,8.10
2023-01-10T12:01:02.097Z,6.93
2023-01-10T12:03:36.833Z,8.45
2023-01-10T12:06:09.527Z,6.82
2023-01-10T12:08:42.363Z,8.05
2023-01-10T12:11:27.531Z,7.38
2023-01-10T12:13:57.822Z,7.20
2023-01-10T12:16:28.496Z,7.40
2023-01-10T12:18:59.929Z,7.65
2023-01-10T12:21:35.485Z,7.47
2023-01-10T12:24:13.377Z,7.60
2023-01-10T12:26:42.739Z,6.60
2023-01-10T12:29:18.379Z,6.50
2023-01-10T12:31:47.071Z,6.40
2023-01-10T12:34:20.300Z,6.63
2023-01-10T12:37:00.673Z,6.55
2023-01-10T12:39:35.088Z,5.90
2023-01-10T12:42:32.222Z,6.30
2023-01-10T12:45:08.108Z,6.32
2023-01-10T12:47:44.501Z,6.43
2023-01-10T12:50:16.940Z,6.57
2023-01-10T12:52:49.657Z,6.80
2023-01-10T12:55:20.801Z,7.83
2023-01-10T12:57:53.548Z,6.05
2023-01-10T13:00:25.650Z,6.97
2023-01-10T13:02:57.140Z,7.93
2023-01-10T13:05:28.004Z,7.68
2023-01-10T13:08:01.235Z,7.55
2023-01-10T13:10:32.488Z,6.30
2023-01-10T13:13:07.441Z,7.13
2023-01-10T13:15:39.955Z,6.68
2023-01-10T13:18:21.243Z,7.78
2023-01-10T13:20:49.451Z,6.55
2023-01-10T13:23:30.240Z,7.32
2023-01-10T13:26:04.806Z,7.28
2023-01-10T13:28:35.507Z,6.50
2023-01-10T13:31:07.272Z,6.20
2023-01-10T13:33:48.679Z,6.00
2023-01-10T13:36:21.811Z,5.18
2023-01-10T13:38:52.568Z,5.72
2023-01-10T13:41:40.421Z,6.63
2023-01-10T13:44:11.578Z,6.18
2023-01-10T13:46:51.665Z,5.22
2023-01-10T13:49:27.755Z,6.32
2023-01-10T13:52:34.998Z,5.38
2023-01-10T13:55:21.524Z,5.80
2023-01-10T13:57:55.912Z,5.15
2023-01-10T14:01:00.981Z,5.28
2023-01-10T14:03:44.715Z,5.78
2023-01-10T14:06:18.978Z,5.32
2023-01-10T14:08:53.840Z,4.55
2023-01-10T14:11:26.393Z,4.47
2023-01-10T14:14:00.179Z,5.65
2023-01-10T14:19:23.041Z,5.00
2023-01-10T14:21:55.051Z,5.10
2023-01-10T14:24:29.443Z,5.00
2023-01-10T14:27:01.667Z,5.07
2023-01-10T14:29:34.463Z,6.03
2023-01-10T14:32:04.353Z,5.65
2023-01-10T14:34:37.300Z,4.68
2023-01-10T14:37:11.220Z,5.15
2023-01-10T14:39:39.920Z,4.88
2023-01-10T14:42:14.396Z,4.85
2023-01-10T14:44:49.784Z,4.63
2023-01-10T14:47:29.379Z,4.95
2023-01-10T14:49:59.122Z,4.38
2023-01-10T14:52:28.595Z,5.18
2023-01-10T14:55:05.954Z,3.83
2023-01-10T14:57:34.203Z,4.82
2023-01-10T15:00:10.582Z,4.55
2023-01-10T15:02:39.359Z,4.00
2023-01-10T15:05:10.574Z,5.65
2023-01-10T15:07:39.221Z,4.88
2023-01-10T15:10:23.331Z,4.63
2023-01-10T15:12:53.991Z,4.13
2023-01-10T15:15:29.869Z,4.75
2023-01-10T15:17:59.152Z,5.05
2023-01-10T15:20:27.954Z,4.43
2023-01-10T15:22:58.565Z,4.25
2023-01-10T15:25:30.524Z,4.43
2023-01-10T15:28:00.071Z,3.70
2023-01-10T15:30:36.556Z,3.97
2023-01-10T15:33:10.085Z,5.47
2023-01-10T15:35:38.260Z,4.25
2023-01-10T15:38:09.907Z,4.53
2023-01-10T15:40:40.240Z,4.32
2023-01-10T15:43:25.488Z,4.55
2023-01-10T15:45:56.693Z,4.05
2023-01-10T15:48:31.050Z,4.32
2023-01-10T15:51:04.526Z,4.50
2023-01-10T15:56:23.157Z,3.33
2023-01-10T15:58:51.463Z,4.57
2023-01-10T16:01:21.373Z,4.32
2023-01-10T16:03:52.238Z,4.82
2023-01-10T16:06:24.391Z,4.10
2023-01-10T16:08:55.037Z,4.70
2023-01-10T16:11:45.090Z,4.32
2023-01-10T16:14:13.038Z,3.80
2023-01-10T16:16:42.395Z,4.18
2023-01-10T16:19:10.376Z,4.35
2023-01-10T16:21:43.314Z,5.25
2023-01-10T16:24:18.955Z,5.05
2023-01-10T16:26:47.816Z,4.10
2023-01-10T16:29:16.257Z,4.05
2023-01-10T16:31:45.807Z,4.10
2023-01-10T16:34:14.055Z,5.00
2023-01-10T16:36:44.088Z,4.82
2023-01-10T16:39:16.655Z,4.80
2023-01-10T16:42:03.709Z,5.10
2023-01-10T16:44:32.605Z,4.35
2023-01-10T16:47:04.900Z,5.07
2023-01-10T16:49:35.037Z,4.63
2023-01-10T16:52:03.628Z,4.95
2023-01-10T16:54:35.401Z,4.20
2023-01-10T16:57:03.463Z,3.92
2023-01-10T16:59:31.450Z,4.00
2023-01-10T17:01:59.578Z,4.13
2023-01-10T17:04:32.810Z,3.95
2023-01-10T17:07:00.930Z,3.90
2023-01-10T17:09:31.548Z,4.32
2023-01-10T17:12:03.589Z,4.45
2023-01-10T17:14:33.202Z,4.65
2023-01-10T17:17:03.166Z,4.10
2023-01-10T17:19:32.945Z,3.90
2023-01-10T17:22:01.388Z,4.60
2023-01-10T17:24:29.993Z,3.92
2023-01-10T17:26:58.151Z,4.40
2023-01-10T17:29:26.092Z,4.53
2023-01-10T17:31:54.459Z,3.63
2023-01-10T17:34:22.537Z,3.92
2023-01-10T17:36:52.224Z,4.07
2023-01-10T17:39:20.163Z,4.30
2023-01-10T17:41:48.088Z,3.80
2023-01-10T17:44:16.082Z,3.88
2023-01-10T17:46:44.137Z,3.50
2023-01-10T17:49:13.466Z,3.85
2023-01-10T17:51:41.664Z,3.28
2023-01-10T17:54:11.136Z,3.63
2023-01-10T17:56:39.378Z,3.55
2023-01-10T17:59:07.373Z,3.38
2023-01-10T18:01:35.345Z,3.00
2023-01-10T18:04:03.633Z,3.92
2023-01-10T18:06:31.574Z,2.95
2023-01-10T18:09:01.749Z,3.08
2023-01-10T18:11:32.857Z,3.15
2023-01-10T18:14:20.873Z,3.38
2023-01-10T18:16:49.325Z,2.33
2023-01-10T18:19:17.349Z,2.95
2023-01-10T18:21:45.199Z,3.15
2023-01-10T18:24:13.292Z,2.40
2023-01-10T18:26:42.771Z,1.95
2023-01-10T18:29:11.216Z,2.17
2023-01-10T18:31:41.297Z,2.67
2023-01-10T18:34:09.507Z,2.40
2023-01-10T18:36:40.062Z,1.90
2023-01-10T18:39:08.173Z,2.13
2023-01-10T18:41:36.564Z,1.90
2023-01-10T18:44:06.262Z,2.10
2023-01-10T18:46:34.273Z,2.50
2023-01-10T18:49:02.561Z,2.13
2023-01-10T18:51:30.599Z,2.00
2023-01-10T18:53:58.658Z,2.00
2023-01-10T18:56:26.731Z,2.97
2023-01-10T18:58:54.762Z,2.03
2023-01-10T19:01:24.457Z,1.75
2023-01-10T19:03:52.928Z,1.80
2023-01-10T19:06:22.804Z,2.03
2023-01-10T19:08:51.799Z,1.67
2023-01-10T19:11:20.542Z,2.47
2023-01-10T19:13:51.420Z,2.15
2023-01-10T19:16:21.814Z,1.60
2023-01-10T19:18:52.961Z,2.17
2023-01-10T19:21:21.325Z,2.38
2023-01-10T19:23:52.135Z,1.85
2023-01-10T19:26:20.702Z,1.88
2023-01-10T19:28:49.192Z,2.28
2023-01-10T19:31:18.170Z,2.05
2023-01-10T19:33:48.065Z,2.10
2023-01-10T19:36:19.141Z,2.10
2023-01-10T19:38:47.457Z,2.10
2023-01-10T19:41:16.233Z,2.42
2023-01-10T19:43:44.301Z,1.98
2023-01-10T19:46:13.876Z,2.20
2023-01-10T19:48:41.949Z,1.50
2023-01-10T19:51:12.386Z,1.88
2023-01-10T19:53:45.482Z,1.80
2023-01-10T19:56:18.358Z,2.35
2023-01-10T19:58:47.761Z,2.08
2023-01-10T20:01:17.413Z,2.97
2023-01-10T20:03:46.712Z,2.42
2023-01-10T20:06:17.015Z,2.53
2023-01-10T20:08:47.542Z,2.40
2023-01-10T20:11:16.811Z,2.60
2023-01-10T20:13:45.741Z,2.33
2023-01-10T20:16:14.703Z,2.72
2023-01-10T20:18:43.040Z,2.53
2023-01-10T20:21:13.076Z,3.03
2023-01-10T20:23:42.509Z,3.00
2023-01-10T20:26:13.772Z,3.50
2023-01-10T20:28:42.713Z,3.30
2023-01-10T20:31:13.880Z,3.30
2023-01-10T20:33:41.963Z,3.75
2023-01-10T20:36:13.726Z,3.55
2023-01-10T20:38:41.912Z,3.60
2023-01-10T20:41:13.740Z,4.07
2023-01-10T20:43:42.338Z,3.47
2023-01-10T20:46:12.454Z,4.07
2023-01-10T20:48:41.768Z,4.20
2023-01-10T20:51:13.344Z,3.80
2023-01-10T20:53:41.464Z,4.05
2023-01-10T20:56:15.099Z,3.80
2023-01-10T20:58:43.890Z,4.32
2023-01-10T21:01:24.829Z,4.78
2023-01-10T21:03:57.920Z,5.25
2023-01-10T21:06:26.689Z,5.75
2023-01-10T21:08:54.985Z,6.38
2023-01-10T21:11:25.122Z,7.05
2023-01-10T21:13:53.271Z,7.00
2023-01-10T21:16:22.592Z,7.55
2023-01-10T21:18:51.144Z,8.32
2023-01-10T21:21:20.683Z,8.20
2023-01-10T21:23:49.113Z,8.60
2023-01-10T21:26:17.144Z,8.75
2023-01-10T21:28:47.817Z,8.77
2023-01-10T21:31:18.443Z,9.20
2023-01-10T21:33:46.745Z,8.93
2023-01-10T21:36:14.843Z,9.23
2023-01-10T21:38:43.709Z,9.20
2023-01-10T21:41:14.529Z,9.65
2023-01-10T21:43:44.510Z,10.77
2023-01-10T21:46:14.074Z,9.93
2023-01-10T21:48:42.035Z,9.48
2023-01-10T21:51:10.008Z,10.60
2023-01-10T21:53:41.294Z,9.88
2023-01-10T21:56:09.616Z,9.30
2023-01-10T21:58:37.471Z,9.65
2023-01-10T22:01:06.045Z,9.77
2023-01-10T22:03:35.987Z,9.75
2023-01-10T22:06:04.396Z,9.25
2023-01-10T22:08:32.269Z,10.25
2023-01-10T22:11:00.323Z,10.02
2023-01-10T22:13:28.358Z,9.40
2023-01-10T22:15:59.405Z,9.50
2023-01-10T22:18:28.182Z,9.35
2023-01-10T22:20:58.841Z,10.43
2023-01-10T22:23:29.468Z,9.95
2023-01-10T22:26:01.775Z,8.70
2023-01-10T22:28:31.025Z,9.73
2023-01-10T22:30:59.628Z,8.60
2023-01-10T22:33:30.840Z,9.55
2023-01-10T22:36:06.061Z,8.85
2023-01-10T22:38:34.482Z,9.40
2023-01-10T22:41:06.975Z,9.30
2023-01-10T22:43:35.388Z,9.10
2023-01-10T22:46:03.517Z,8.88
2023-01-10T22:48:31.442Z,9.10
2023-01-10T22:51:01.261Z,9.25
2023-01-10T22:53:30.525Z,9.15
2023-01-10T22:56:00.819Z,8.60
2023-01-10T22:58:29.096Z,9.02
2023-01-10T23:00:57.415Z,7.95
2023-01-10T23:03:25.895Z,8.85
2023-01-10T23:05:55.763Z,7.90
2023-01-10T23:08:23.770Z,7.90
2023-01-10T23:10:54.007Z,7.13
2023-01-10T23:13:22.441Z,7.68
2023-01-10T23:15:57.273Z,8.15
2023-01-10T23:18:25.415Z,7.40
2023-01-10T23:20:53.477Z,7.20
2023-01-10T23:23:21.588Z,7.75
2023-01-10T23:26:01.432Z,7.43
2023-01-10T23:28:32.528Z,7.53
2023-01-10T23:31:00.530Z,7.50
2023-01-10T23:33:28.733Z,6.30
2023-01-10T23:35:56.752Z,6.93
2023-01-10T23:38:24.876Z,6.57
2023-01-10T23:40:53.030Z,6.47
2023-01-10T23:43:20.890Z,7.03
2023-01-10T23:45:50.396Z,7.25
2023-01-10T23:48:18.767Z,6.72
2023-01-10T23:50:48.685Z,6.95
2023-01-10T23:53:16.615Z,6.68
2023-01-10T23:55:44.716Z,6.60
2023-01-10T23:58:12.793Z,6.28
